Bodega Marine Reserve, California Weather observations

Data are for 10 minute period ending at time listed.
 Day   Time   Solar   Ave.   Ave.  Ave.  Vector  Max.   Baro.   Total    
  of    of     Rad.   Air    Rel.  Wind   Wind   Wind  Press.  Precip.   
Year   Day            Temp.  Hum.  Speed  Dir.   Gust                    
2015   (PST)  Kw/m2    F      %     mph   deg.    mph    mb.     in.     
-------------------------------------------------------------------------
 147    0:00   0.00   51.5    94    5.2   302     8.6   1013.2    0.00 
 147    0:10   0.00   51.2    94    6.3   300     8.7   1012.9    0.00 
 147    0:20   0.00   51.2    94    5.4   292     8.1   1012.9    0.00 
 147    0:30   0.00   51.1    94    5.3   303     8.0   1012.9    0.00 
 147    0:40   0.00   51.0    94    4.3   299     6.1   1012.9    0.00 
 147    0:50   0.00   50.9    94    4.7   282     6.4   1012.9    0.00 
 147    1:00   0.00   50.9    94    4.8   279     5.8   1012.9    0.00 
 147    1:10   0.00   50.8    95    3.7   295     5.1   1012.9    0.00 
 147    1:20   0.00   50.8    95    2.4   289     3.9   1012.9    0.00 
 147    1:30   0.00   50.8    95    2.3   276     3.8   1012.9    0.00 
 147    1:40   0.00   50.8    95    1.4   281     2.5   1013.2    0.00 
 147    1:50   0.00   50.7    95    1.4   293     2.6   1013.2    0.00 
 147    2:00   0.00   50.6    95    2.0   300     2.7   1013.2    0.00 
 147    2:10   0.00   50.6    95    2.3   313     3.6   1012.9    0.00 
 147    2:20   0.00   50.6    95    1.9   317     3.9   1012.9    0.00 
 147    2:30   0.00   50.5    95    0.6   304     2.5   1012.9    0.00 
 147    2:40   0.00   50.3    95    4.2   304     5.5   1012.9    0.00 
 147    2:50   0.00   50.1    95    3.9   304     5.2   1012.9    0.01 
 147    3:00   0.00   50.1    95    4.6   302     8.4   1012.9    0.00 
 147    3:10   0.00   50.0    95    5.1   294     7.6   1012.9    0.00 
 147    3:20   0.00   49.8    95    4.4   288     6.6   1012.9    0.00 
 147    3:30   0.00   49.7    95    4.3   297     5.5   1012.5    0.00 
 147    3:40   0.00   49.6    95    3.8   307     5.3   1012.9    0.00 
 147    3:50   0.00   49.6    95    2.3   326     3.4   1012.9    0.00 
 147    4:00   0.00   49.6    95    0.7   320     2.0   1012.9    0.00 
 147    4:10   0.00   49.6    95    0.3   235     1.3   1012.9    0.00 
 147    4:20   0.00   49.6    95    1.3   328     2.6   1012.9    0.00 
 147    4:30   0.00   49.6    95    2.2   353     3.1   1012.9    0.00 
 147    4:40   0.00   49.6    95    2.1    18     3.3   1012.9    0.00 
 147    4:50   0.00   49.5    95    2.4   354     3.8   1012.9    0.00 
 147    5:00   0.00   49.5    95    1.8   340     2.8   1012.9    0.00 
 147    5:10   0.01   49.5    95    2.2   336     3.7   1012.9    0.00 
 147    5:20   0.01   49.6    95    2.1   338     3.5   1012.9    0.00 
 147    5:30   0.01   49.6    95    2.7   305     4.2   1013.2    0.00 
 147    5:40   0.02   49.5    95    2.9   324     4.2   1013.2    0.00 
 147    5:50   0.04   49.5    95    2.3   320     4.2   1013.2    0.00 
 147    6:00   0.04   49.6    95    2.9   300     4.7   1013.2    0.00 
 147    6:10   0.06   49.7    95    2.9   284     5.2   1013.2    0.00 
 147    6:20   0.07   50.0    95    3.9   288     5.8   1013.5    0.00 
 147    6:30   0.07   49.8    95    3.2   283     5.8   1013.5    0.00 
 147    6:40   0.07   49.6    95    1.0   239     2.7   1013.5    0.00 
 147    6:50   0.12   50.1    95    3.0   309     4.8   1013.9    0.00 
 147    7:00   0.11   50.6    94    4.1   300     6.7   1013.9    0.00 
 147    7:10   0.11   50.4    94    5.7   317     7.5   1013.9    0.00 
 147    7:20   0.14   50.5    94    3.9   320     6.1   1013.9    0.00 
 147    7:30   0.19   51.0    94    4.4   322     6.9   1013.9    0.00 
 147    7:40   0.19   51.3    94    3.3   302     5.3   1013.9    0.00 
 147    7:50   0.21   51.4    94    4.0   296     5.8   1014.2    0.00 
 147    8:00   0.22   51.2    94    4.7   264     6.4   1014.2    0.00 
 147    8:10   0.20   51.6    94    4.9   275     7.3   1014.2    0.00 
 147    8:20   0.21   51.6    93    4.3   271     6.4   1014.2    0.00 
 147    8:30   0.22   51.8    93    4.5   249     7.5   1014.2    0.00 
 147    8:40   0.22   51.6    92    5.8   245     7.5   1014.2    0.00 
 147    8:50   0.23   51.5    92    5.9   251     7.8   1014.6    0.00 
 147    9:00   0.25   51.6    92    5.3   248     8.0   1014.6    0.00 
 147    9:10   0.28   51.7    91    5.7   242     7.9   1014.6    0.00 
 147    9:20   0.31   52.2    91    5.4   238     7.7   1014.6    0.00 
 147    9:30   0.37   52.2    91    5.4   242     7.5   1014.6    0.00 
 147    9:40   0.39   52.6    89    6.3   228     8.7   1014.6    0.00 
 147    9:50   0.40   52.5    90    5.2   224     8.0   1014.6    0.00 
 147   10:00   0.40   53.2    88    5.5   217     8.2   1014.6    0.00 
 147   10:10   0.44   53.2    87    5.0   217     8.3   1014.9    0.00 
 147   10:20   0.45   53.2    86    5.3   217     8.2   1014.9    0.00 
 147   10:30   0.49   53.6    86    5.5   230     9.1   1014.9    0.00 
 147   10:40   0.49   54.1    84    5.5   231     8.3   1014.9    0.00 
 147   10:50   0.51   54.3    84    6.0   246     8.7   1014.9    0.00 
 147   11:00   0.54   54.4    83    6.9   256     9.5   1014.9    0.00 
 147   11:10   0.57   54.2    83    7.4   260    10.3   1014.9    0.00 
 147   11:20   0.57   54.7    83    7.0   258     9.9   1014.9    0.00 
 147   11:30   0.62   54.7    82    7.3   257    10.2   1014.9    0.00 
 147   11:40   0.64   54.9    82    7.8   269    10.6   1014.9    0.00 
 147   11:50   0.67   55.7    80    6.5   273     9.2   1014.9    0.00 
 147   12:00   0.75   55.1    80    5.3   296     8.4   1014.9    0.00 
 147   12:10   0.94   55.2    80    5.6   274     9.4   1014.9    0.00 
 147   12:20   0.60   55.7    79    7.4   292    10.7   1014.9    0.00 
 147   12:30   0.66   55.1    80    7.8   295    11.3   1014.9    0.01 
 147   12:40   0.65   55.4    80    7.0   302    11.8   1014.9    0.00 
 147   12:50   0.75   56.0    79    7.7   281    11.9   1014.9    0.00 
 147   13:00   0.65   55.9    78    9.7   293    14.2   1014.9    0.00 
 147   13:10   0.58   56.0    78    9.3   287    14.0   1014.9    0.00 
 147   13:20   0.56   56.2    77    9.0   299    13.6   1014.6    0.00 
 147   13:30   0.48   55.3    79   10.6   300    15.4   1014.6    0.00 
 147   13:40   0.49   55.4    80   10.4   287    13.5   1014.6    0.00 
 147   13:50   0.65   56.8    78   11.2   295    18.3   1014.6    0.00 
 147   14:00   0.67   56.9    77   15.3   305    22.1   1014.6    0.00 
 147   14:10   0.54   57.0    77   14.8   302    19.6   1014.6    0.00 
 147   14:20   0.49   56.8    78   13.5   287    17.3   1014.6    0.00 
 147   14:30   0.47   56.7    79   13.8   287    17.5   1014.6    0.00 
 147   14:40   0.45   56.4    80   14.4   286    18.5   1014.6    0.00 
 147   14:50   0.44   56.2    80   15.4   285    20.0   1014.2    0.00 
 147   15:00   0.44   56.3    81   14.3   283    20.0   1014.2    0.00 
 147   15:10   0.43   56.2    81   14.9   284    19.7   1014.2    0.00 
 147   15:20   0.42   56.2    82   15.4   282    20.8   1014.2    0.00 
 147   15:30   0.39   55.8    82   16.0   283    22.0   1013.9    0.00 
 147   15:40   0.30   55.6    83   15.9   283    21.9   1013.9    0.00 
 147   15:50   0.27   55.2    84   15.6   284    21.0   1014.2    0.00 
 147   16:00   0.28   55.1    84   15.7   288    20.3   1013.9    0.00 
 147   16:10   0.26   55.0    85   15.4   289    22.9   1013.9    0.00 
 147   16:20   0.25   55.2    85   14.3   290    20.3   1013.9    0.00 
 147   16:30   0.23   55.1    84   15.2   292    21.9   1013.5    0.00 
 147   16:40   0.23   55.0    85   14.5   290    19.1   1013.5    0.00 
 147   16:50   0.23   55.1    85   16.1   291    22.5   1013.2    0.00 
 147   17:00   0.21   54.8    85   16.6   291    21.5   1013.2    0.00 
 147   17:10   0.24   55.1    85   15.5   292    20.7   1012.9    0.00 
 147   17:20   0.23   54.9    85   16.8   289    23.9   1012.9    0.00 
 147   17:30   0.19   54.6    86   17.8   288    26.5   1012.9    0.00 
 147   17:40   0.15   54.3    86   18.2   287    25.0   1012.9    0.00 
 147   17:50   0.13   54.2    87   17.5   289    23.7   1012.9    0.00 
 147   18:00   0.09   54.1    87   16.0   290    22.4   1012.9    0.00 
 147   18:10   0.07   53.9    87   18.6   296    26.1   1012.9    0.00 
 147   18:20   0.07   53.7    88   19.7   296    26.7   1012.9    0.00 
 147   18:30   0.06   53.5    88   20.0   295    27.0   1012.9    0.00 
 147   18:40   0.05   53.4    88   19.2   296    28.1   1012.9    0.00 
 147   18:50   0.04   53.1    88   18.0   299    24.6   1012.9    0.00 
 147   19:00   0.02   53.0    89   17.0   299    24.0   1012.9    0.00 

Return to Bodega Marine Reserve graphs page.


Western Regional Climate Center,wrcc@dri.edu